createdAt,value
2018-12-08T00:02:44.891Z,75.77
2018-12-08T00:05:49.816Z,75.30
2018-12-08T00:08:54.452Z,75.69
2018-12-08T00:11:59.064Z,74.92
2018-12-08T00:15:03.829Z,74.99
2018-12-08T00:18:08.420Z,74.59
2018-12-08T00:21:12.932Z,74.76
2018-12-08T00:24:17.502Z,74.45
2018-12-08T00:27:22.050Z,75.70
2018-12-08T00:30:43.871Z,74.08
2018-12-08T00:33:48.605Z,75.97
2018-12-08T00:36:53.300Z,74.45
2018-12-08T00:39:57.788Z,73.70
2018-12-08T00:43:02.386Z,73.28
2018-12-08T00:46:06.896Z,72.02
2018-12-08T00:49:11.613Z,70.25
2018-12-08T00:52:16.500Z,72.17
2018-12-08T00:55:21.154Z,70.34
2018-12-08T00:58:25.817Z,70.97
2018-12-08T01:01:30.363Z,72.64
2018-12-08T01:04:34.917Z,72.49
2018-12-08T01:07:39.481Z,74.46
2018-12-08T01:10:43.971Z,75.65
2018-12-08T01:13:48.534Z,75.37
2018-12-08T01:16:53.065Z,74.23
2018-12-08T01:19:57.660Z,75.48
2018-12-08T01:23:02.286Z,75.26
2018-12-08T01:26:06.871Z,74.04
2018-12-08T01:29:11.564Z,73.01
2018-12-08T01:32:16.156Z,72.57
2018-12-08T01:35:20.688Z,72.68
2018-12-08T01:38:25.327Z,73.76
2018-12-08T01:41:29.882Z,71.14
2018-12-08T01:44:34.568Z,71.71
2018-12-08T01:47:39.143Z,72.59
2018-12-08T01:50:43.791Z,71.99
2018-12-08T01:53:48.389Z,71.91
2018-12-08T01:56:53.052Z,70.31
2018-12-08T01:59:57.803Z,71.94
2018-12-08T02:03:02.588Z,69.93
2018-12-08T02:06:07.402Z,70.52
2018-12-08T02:09:12.006Z,69.57
2018-12-08T02:12:16.716Z,69.72
2018-12-08T02:15:21.352Z,71.36
2018-12-08T02:18:25.883Z,71.30
2018-12-08T02:21:30.498Z,70.70
2018-12-08T02:24:35.019Z,71.34
2018-12-08T02:27:39.663Z,71.72
2018-12-08T02:30:44.348Z,71.53
2018-12-08T02:33:48.902Z,71.35
2018-12-08T02:36:53.806Z,70.97
2018-12-08T02:39:58.345Z,70.09
2018-12-08T02:43:02.912Z,70.90
2018-12-08T02:46:07.471Z,71.39
2018-12-08T02:49:12.062Z,71.05
2018-12-08T02:52:16.611Z,70.82
2018-12-08T02:55:21.229Z,70.84
2018-12-08T02:58:25.788Z,72.00
2018-12-08T03:01:30.492Z,73.59
2018-12-08T03:04:35.068Z,76.21
2018-12-08T03:07:39.564Z,76.72
2018-12-08T03:10:44.227Z,77.34
2018-12-08T03:13:48.879Z,77.79
2018-12-08T03:16:53.715Z,77.09
2018-12-08T03:19:58.317Z,76.40
2018-12-08T03:23:02.907Z,76.52
2018-12-08T03:26:07.559Z,77.36
2018-12-08T03:29:12.322Z,77.36
2018-12-08T03:32:16.893Z,79.33
2018-12-08T03:35:21.571Z,78.92
2018-12-08T03:38:26.296Z,79.43
2018-12-08T03:41:30.820Z,80.55
2018-12-08T03:44:35.440Z,81.43
2018-12-08T03:47:40.032Z,79.27
2018-12-08T03:50:44.578Z,79.58
2018-12-08T03:53:49.165Z,79.12
2018-12-08T03:56:53.875Z,76.66
2018-12-08T03:59:58.414Z,77.18
2018-12-08T04:03:02.981Z,77.01
2018-12-08T04:06:07.734Z,77.04
2018-12-08T04:09:12.359Z,74.73
2018-12-08T04:12:16.982Z,73.31
2018-12-08T04:15:21.747Z,75.67
2018-12-08T04:18:26.277Z,73.79
2018-12-08T04:21:31.156Z,73.44
2018-12-08T04:24:35.720Z,73.39
2018-12-08T04:27:40.305Z,74.22
2018-12-08T04:30:44.859Z,73.44
2018-12-08T04:33:49.435Z,74.40
2018-12-08T04:36:54.009Z,73.80
2018-12-08T04:39:58.553Z,73.12
2018-12-08T04:43:03.167Z,72.95
2018-12-08T04:46:07.818Z,70.32
2018-12-08T04:49:12.348Z,70.16
2018-12-08T04:52:16.936Z,69.54
2018-12-08T04:55:21.535Z,70.34
2018-12-08T04:58:26.173Z,70.04
2018-12-08T05:01:30.813Z,70.17
2018-12-08T05:04:35.658Z,70.42
2018-12-08T05:07:40.190Z,70.10
2018-12-08T05:10:44.676Z,71.12
2018-12-08T05:13:49.325Z,71.22
2018-12-08T05:16:53.926Z,72.08
2018-12-08T05:19:58.473Z,72.48
2018-12-08T05:23:03.049Z,71.51
2018-12-08T05:26:07.804Z,71.17
2018-12-08T05:29:12.710Z,72.14
2018-12-08T05:32:17.636Z,71.36
2018-12-08T05:35:22.288Z,71.58
2018-12-08T05:38:27.088Z,71.30
2018-12-08T05:41:31.718Z,72.02
2018-12-08T05:44:36.512Z,72.10
2018-12-08T05:47:41.147Z,72.43
2018-12-08T05:50:45.696Z,72.59
2018-12-08T05:53:50.434Z,72.91
2018-12-08T05:56:55.098Z,73.09
2018-12-08T05:59:59.672Z,73.30
2018-12-08T06:03:04.367Z,73.75
2018-12-08T06:06:08.934Z,73.98
2018-12-08T06:09:13.664Z,74.54
2018-12-08T06:12:18.210Z,74.23
2018-12-08T06:15:23.836Z,74.44
2018-12-08T06:18:28.338Z,74.40
2018-12-08T06:21:40.360Z,75.61
2018-12-08T06:24:44.833Z,76.47
2018-12-08T06:28:04.700Z,75.74
2018-12-08T06:31:09.285Z,76.40
2018-12-08T06:34:13.859Z,76.42
2018-12-08T06:37:18.410Z,76.93
2018-12-08T06:40:29.168Z,77.27
2018-12-08T06:43:29.531Z,78.07
2018-12-08T06:46:34.399Z,78.46
2018-12-08T06:49:38.856Z,79.04
2018-12-08T06:52:43.598Z,80.31
2018-12-08T06:55:48.204Z,81.75
2018-12-08T06:58:52.874Z,81.89
2018-12-08T07:01:57.691Z,82.01
2018-12-08T07:05:02.172Z,83.59
2018-12-08T07:08:06.898Z,83.67
2018-12-08T07:11:11.427Z,85.09
2018-12-08T07:14:16.139Z,84.69
2018-12-08T07:17:20.755Z,84.26
2018-12-08T07:20:25.279Z,85.09
2018-12-08T07:23:29.776Z,84.53
2018-12-08T07:26:34.335Z,86.07
2018-12-08T07:29:38.822Z,85.30
2018-12-08T07:32:43.354Z,85.47
2018-12-08T07:35:47.908Z,86.88
2018-12-08T07:38:52.487Z,86.21
2018-12-08T07:41:57.099Z,84.13
2018-12-08T07:45:01.735Z,83.24
2018-12-08T07:48:06.477Z,84.20
2018-12-08T07:51:11.016Z,85.16
2018-12-08T07:54:15.716Z,84.23
2018-12-08T07:57:20.248Z,84.37
2018-12-08T08:00:24.766Z,84.22
2018-12-08T08:03:29.321Z,84.09
2018-12-08T08:06:33.788Z,84.33
2018-12-08T08:09:38.450Z,84.79
2018-12-08T08:12:42.993Z,84.49
2018-12-08T08:15:47.604Z,83.68
2018-12-08T08:18:52.180Z,84.18
2018-12-08T08:21:56.651Z,84.11
2018-12-08T08:25:01.258Z,83.74
2018-12-08T08:28:05.838Z,83.88
2018-12-08T08:31:10.433Z,85.90
2018-12-08T08:34:15.005Z,85.31
2018-12-08T08:37:19.583Z,85.01
2018-12-08T08:40:24.161Z,85.75
2018-12-08T08:43:28.776Z,85.72
2018-12-08T08:46:33.573Z,84.33
2018-12-08T08:49:38.059Z,85.44
2018-12-08T08:52:42.696Z,86.31
2018-12-08T08:55:47.280Z,85.20
2018-12-08T08:58:51.977Z,84.72
2018-12-08T09:01:56.581Z,83.79
2018-12-08T09:05:01.218Z,85.60
2018-12-08T09:08:05.803Z,85.41
2018-12-08T09:11:10.393Z,85.37
2018-12-08T09:14:14.913Z,86.57
2018-12-08T09:17:19.483Z,85.01
2018-12-08T09:20:24.097Z,84.65
2018-12-08T09:23:28.781Z,84.06
2018-12-08T09:26:33.408Z,84.38
2018-12-08T09:29:38.136Z,85.28
2018-12-08T09:32:42.667Z,83.59
2018-12-08T09:35:47.158Z,84.37
2018-12-08T09:38:51.801Z,84.29
2018-12-08T09:41:56.349Z,83.83
2018-12-08T09:45:00.981Z,83.96
2018-12-08T09:48:05.628Z,83.30
2018-12-08T09:51:10.311Z,83.77
2018-12-08T09:54:15.082Z,84.99
2018-12-08T09:57:19.585Z,82.87
2018-12-08T10:00:24.104Z,82.99
2018-12-08T10:03:28.712Z,82.70
2018-12-08T10:06:33.233Z,83.00
2018-12-08T10:09:37.825Z,82.56
2018-12-08T10:12:42.370Z,82.28
2018-12-08T10:15:47.306Z,81.83
2018-12-08T10:18:51.869Z,82.55
2018-12-08T10:21:56.506Z,82.19
2018-12-08T10:25:01.123Z,82.71
2018-12-08T10:28:06.290Z,83.52
2018-12-08T10:31:11.793Z,82.68
2018-12-08T10:34:16.325Z,84.25
2018-12-08T10:37:20.997Z,83.34
2018-12-08T10:40:25.580Z,83.57
2018-12-08T10:43:31.025Z,84.15
2018-12-08T10:46:35.815Z,83.98
2018-12-08T10:49:40.336Z,83.51
2018-12-08T10:52:44.922Z,83.99
2018-12-08T10:55:49.456Z,84.55
2018-12-08T10:58:54.023Z,85.31
2018-12-08T11:02:02.695Z,85.73
2018-12-08T11:05:07.676Z,85.29
2018-12-08T11:08:12.316Z,84.36
2018-12-08T11:11:16.832Z,84.24
2018-12-08T11:14:21.368Z,84.35
2018-12-08T11:17:25.854Z,84.23
2018-12-08T11:20:30.426Z,82.75
2018-12-08T11:23:35.339Z,83.23
2018-12-08T11:26:40.238Z,83.26
2018-12-08T11:29:44.849Z,84.33
2018-12-08T11:32:49.463Z,84.31
2018-12-08T11:35:54.226Z,85.69
2018-12-08T11:38:58.819Z,85.68
2018-12-08T11:42:03.920Z,84.65
2018-12-08T11:45:08.917Z,83.62
2018-12-08T11:48:13.583Z,83.79
2018-12-08T11:51:18.172Z,83.99
2018-12-08T11:54:22.789Z,83.63
2018-12-08T11:57:27.475Z,82.93
2018-12-08T12:00:32.309Z,84.06
2018-12-08T12:03:36.913Z,83.47
2018-12-08T12:06:41.846Z,83.46
2018-12-08T12:09:46.525Z,82.38
2018-12-08T12:12:51.051Z,84.20
2018-12-08T12:15:56.318Z,83.30
2018-12-08T12:19:00.874Z,83.16
2018-12-08T12:22:05.562Z,83.79
2018-12-08T12:25:10.585Z,84.16
2018-12-08T12:28:15.272Z,83.83
2018-12-08T12:31:19.790Z,83.37
2018-12-08T12:34:24.293Z,83.30
2018-12-08T12:37:28.885Z,83.11
2018-12-08T12:40:33.523Z,83.92
2018-12-08T12:43:38.144Z,82.45
2018-12-08T12:46:43.046Z,83.20
2018-12-08T12:49:47.767Z,81.31
2018-12-08T12:52:52.308Z,82.89
2018-12-08T12:55:56.870Z,81.15
2018-12-08T12:59:01.639Z,82.17
2018-12-08T13:02:06.577Z,81.65
2018-12-08T13:05:11.252Z,81.01
2018-12-08T13:08:15.782Z,81.75
2018-12-08T13:11:20.233Z,81.36
2018-12-08T13:14:24.883Z,79.89
2018-12-08T13:17:29.337Z,81.85
2018-12-08T13:20:34.085Z,81.21
2018-12-08T13:23:40.725Z,82.00
2018-12-08T13:26:46.295Z,82.47
2018-12-08T13:29:50.938Z,81.83
2018-12-08T13:32:55.431Z,82.47
2018-12-08T13:36:01.293Z,83.70
2018-12-08T13:39:06.052Z,83.35
2018-12-08T13:42:10.596Z,82.03
2018-12-08T13:45:20.011Z,81.96
2018-12-08T13:48:26.227Z,82.33
2018-12-08T13:51:30.879Z,81.96
2018-12-08T13:54:48.974Z,82.03
2018-12-08T13:57:53.656Z,81.79
2018-12-08T14:00:58.295Z,81.61
2018-12-08T14:04:02.844Z,82.00
2018-12-08T14:07:07.608Z,81.70
2018-12-08T14:10:12.559Z,81.17
2018-12-08T14:13:18.746Z,81.69
2018-12-08T14:16:23.616Z,81.20
2018-12-08T14:19:28.195Z,82.14
2018-12-08T14:22:34.247Z,78.45
2018-12-08T14:25:38.838Z,80.65
2018-12-08T14:28:43.660Z,81.11
2018-12-08T14:31:49.457Z,80.65
2018-12-08T14:34:54.600Z,80.80
2018-12-08T14:37:59.761Z,79.63
2018-12-08T14:41:07.686Z,80.48
2018-12-08T14:44:14.609Z,81.06
2018-12-08T14:47:19.197Z,82.11
2018-12-08T14:50:24.076Z,82.30
2018-12-08T14:53:28.609Z,82.81
2018-12-08T14:56:33.315Z,81.40
2018-12-08T14:59:38.014Z,82.06
2018-12-08T15:02:43.446Z,82.49
2018-12-08T15:05:48.025Z,83.23
2018-12-08T15:08:53.104Z,83.87
2018-12-08T15:11:57.750Z,84.23
2018-12-08T15:15:02.357Z,82.81
2018-12-08T15:18:06.961Z,83.34
2018-12-08T15:21:11.666Z,83.27
2018-12-08T15:24:16.164Z,82.69
2018-12-08T15:27:20.708Z,83.06
2018-12-08T15:30:25.483Z,81.79
2018-12-08T15:33:30.093Z,82.88
2018-12-08T15:36:34.686Z,84.31
2018-12-08T15:39:39.200Z,84.87
2018-12-08T15:42:43.808Z,85.43
2018-12-08T15:45:48.545Z,85.00
2018-12-08T15:48:53.086Z,85.02
2018-12-08T15:51:58.833Z,84.59
2018-12-08T15:55:03.585Z,84.00
2018-12-08T15:58:08.210Z,83.78
2018-12-08T16:01:12.876Z,83.59
2018-12-08T16:04:17.583Z,82.45
2018-12-08T16:07:22.416Z,83.20
2018-12-08T16:10:26.954Z,83.12
2018-12-08T16:13:31.603Z,82.33
2018-12-08T16:16:36.369Z,83.05
2018-12-08T16:19:40.978Z,82.92
2018-12-08T16:22:45.587Z,82.87
2018-12-08T16:25:50.127Z,84.20
2018-12-08T16:28:54.823Z,83.52
2018-12-08T16:31:59.659Z,85.53
2018-12-08T16:35:04.475Z,84.66
2018-12-08T16:38:09.962Z,85.00
2018-12-08T16:41:14.596Z,85.08
2018-12-08T16:44:19.469Z,85.56
2018-12-08T16:47:23.958Z,85.31
2018-12-08T16:50:28.662Z,84.67
2018-12-08T16:53:33.321Z,84.38
2018-12-08T16:56:38.131Z,84.07
2018-12-08T16:59:42.756Z,82.92
2018-12-08T17:02:47.339Z,83.44
2018-12-08T17:05:52.139Z,83.57
2018-12-08T17:08:57.095Z,82.79
2018-12-08T17:12:01.692Z,82.92
2018-12-08T17:15:07.326Z,81.89
2018-12-08T17:18:11.927Z,81.41
2018-12-08T17:21:15.013Z,82.54
2018-12-08T17:24:19.733Z,81.95
2018-12-08T17:27:24.383Z,81.92
2018-12-08T17:30:29.063Z,83.24
2018-12-08T17:33:33.602Z,83.51
2018-12-08T17:36:38.324Z,82.78
2018-12-08T17:39:43.019Z,83.35
2018-12-08T17:42:47.667Z,85.43
2018-12-08T17:45:52.242Z,86.10
2018-12-08T17:48:56.838Z,85.01
2018-12-08T17:52:01.555Z,86.12
2018-12-08T17:55:06.964Z,85.82
2018-12-08T17:58:11.474Z,85.43
2018-12-08T18:01:16.058Z,86.65
2018-12-08T18:04:20.540Z,85.79
2018-12-08T18:07:25.160Z,86.86
2018-12-08T18:10:29.682Z,87.13
2018-12-08T18:13:34.349Z,87.37
2018-12-08T18:16:38.844Z,88.27
2018-12-08T18:19:43.475Z,87.00
2018-12-08T18:22:48.070Z,86.31
2018-12-08T18:25:52.611Z,87.19
2018-12-08T18:28:58.102Z,86.95
2018-12-08T18:32:02.890Z,87.33
2018-12-08T18:35:09.422Z,87.54
2018-12-08T18:38:17.330Z,87.87
2018-12-08T18:44:35.902Z,87.63
2018-12-08T18:47:40.485Z,87.12
2018-12-08T18:50:45.038Z,87.01
2018-12-08T18:53:49.783Z,86.53
2018-12-08T18:56:54.467Z,86.65
2018-12-08T18:59:59.365Z,86.21
2018-12-08T19:03:03.874Z,85.54
2018-12-08T19:06:08.356Z,85.45
2018-12-08T19:09:12.910Z,86.81
2018-12-08T19:12:17.554Z,86.27
2018-12-08T19:15:22.246Z,85.46
2018-12-08T19:18:26.805Z,86.23
2018-12-08T19:21:31.402Z,85.77
2018-12-08T19:24:36.212Z,86.83
2018-12-08T19:27:40.795Z,86.55
2018-12-08T19:30:47.383Z,86.18
2018-12-08T19:33:55.409Z,85.07
2018-12-08T19:37:00.060Z,85.85
2018-12-08T19:40:05.169Z,84.77
2018-12-08T19:43:09.824Z,85.40
2018-12-08T19:46:14.309Z,85.79
2018-12-08T19:49:19.002Z,87.15
2018-12-08T19:52:23.647Z,87.52
2018-12-08T19:55:28.240Z,87.71
2018-12-08T19:58:37.048Z,87.80
2018-12-08T20:01:52.187Z,88.03
2018-12-08T20:04:57.997Z,87.88
2018-12-08T20:08:03.656Z,88.03
2018-12-08T20:11:09.183Z,88.26
2018-12-08T20:14:16.875Z,89.01
2018-12-08T20:17:21.821Z,89.05
2018-12-08T20:20:26.559Z,88.90
2018-12-08T20:26:48.911Z,88.23
2018-12-08T20:29:53.471Z,88.64
2018-12-08T20:32:58.070Z,89.14
2018-12-08T20:36:02.661Z,90.06
2018-12-08T20:39:08.699Z,89.75
2018-12-08T20:42:13.222Z,89.54
2018-12-08T20:45:17.982Z,89.33
2018-12-08T20:48:22.567Z,88.39
2018-12-08T20:51:27.241Z,88.95
2018-12-08T20:54:31.803Z,88.10
2018-12-08T20:57:37.094Z,88.66
2018-12-08T21:00:41.901Z,87.36
2018-12-08T21:03:46.707Z,88.01
2018-12-08T21:06:51.644Z,87.68
2018-12-08T21:09:56.129Z,87.36
2018-12-08T21:13:00.699Z,88.34
2018-12-08T21:16:05.316Z,87.74
2018-12-08T21:19:09.879Z,87.38
2018-12-08T21:22:14.483Z,87.78
2018-12-08T21:25:19.010Z,87.82
2018-12-08T21:28:23.668Z,88.04
2018-12-08T21:31:28.343Z,87.77
2018-12-08T21:34:32.935Z,87.46
2018-12-08T21:37:37.454Z,87.33
2018-12-08T21:40:41.966Z,86.67
2018-12-08T21:43:46.533Z,88.03
2018-12-08T21:46:51.178Z,87.52
2018-12-08T21:49:55.753Z,87.55
2018-12-08T21:53:00.409Z,87.76
2018-12-08T21:56:05.122Z,86.37
2018-12-08T21:59:09.765Z,87.25
2018-12-08T22:02:14.986Z,87.07
2018-12-08T22:05:19.651Z,86.92
2018-12-08T22:08:24.229Z,86.97
2018-12-08T22:11:28.973Z,85.80
2018-12-08T22:17:56.463Z,86.97
2018-12-08T22:21:01.138Z,87.28
2018-12-08T22:24:05.797Z,87.57
2018-12-08T22:27:10.452Z,88.02
2018-12-08T22:30:15.051Z,88.93
2018-12-08T22:33:19.584Z,88.04
2018-12-08T22:36:24.130Z,88.16
2018-12-08T22:39:28.723Z,88.79
2018-12-08T22:42:33.289Z,88.17
2018-12-08T22:45:37.851Z,88.87
2018-12-08T22:48:42.616Z,88.30
2018-12-08T22:51:47.268Z,88.05
2018-12-08T22:54:51.834Z,87.66
2018-12-08T22:57:56.732Z,87.30
2018-12-08T23:01:01.483Z,87.21
2018-12-08T23:04:06.504Z,88.34
2018-12-08T23:10:25.627Z,89.04
2018-12-08T23:13:30.823Z,88.19
2018-12-08T23:16:35.376Z,88.91
2018-12-08T23:22:53.180Z,87.36
2018-12-08T23:25:57.738Z,86.16
2018-12-08T23:29:02.285Z,85.55
2018-12-08T23:32:06.828Z,86.96
2018-12-08T23:35:11.442Z,87.33
2018-12-08T23:38:16.058Z,87.53
2018-12-08T23:41:20.651Z,89.21
2018-12-08T23:44:25.273Z,89.44
2018-12-08T23:47:29.799Z,88.51
2018-12-08T23:50:34.481Z,87.91
2018-12-08T23:57:01.934Z,88.75
